sensor_id;sensor_type;location;lat;lon;timestamp;temperature;humidity
8332;DHT22;4203;48.144;14.118;2024-03-07T10:01:19;6.40;99.90
8332;DHT22;4203;48.144;14.118;2024-03-07T10:10:46;6.40;99.90
8332;DHT22;4203;48.144;14.118;2024-03-07T10:13:53;7.00;99.90
8332;DHT22;4203;48.144;14.118;2024-03-07T10:20:37;7.50;99.90
8332;DHT22;4203;48.144;14.118;2024-03-07T10:24:07;7.80;99.90
8332;DHT22;4203;48.144;14.118;2024-03-07T10:53:56;8.00;99.90
8332;DHT22;4203;48.144;14.118;2024-03-07T10:57:15;7.80;99.90
8332;DHT22;4203;48.144;14.118;2024-03-07T11:04:00;8.20;99.90
8332;DHT22;4203;48.144;14.118;2024-03-07T11:38:49;7.80;99.90
8332;DHT22;4203;48.144;14.118;2024-03-07T11:41:40;6.60;99.90
8332;DHT22;4203;48.144;14.118;2024-03-07T11:47:12;6.70;99.90
8332;DHT22;4203;48.144;14.118;2024-03-07T11:50:00;6.10;99.90
8332;DHT22;4203;48.144;14.118;2024-03-07T11:52:42;6.50;99.90
8332;DHT22;4203;48.144;14.118;2024-03-07T11:59:11;6.60;99.90
8332;DHT22;4203;48.144;14.118;2024-03-07T12:02:13;6.40;99.90
8332;DHT22;4203;48.144;14.118;2024-03-07T12:05:26;6.30;99.90
8332;DHT22;4203;48.144;14.118;2024-03-07T12:08:13;6.60;99.90
8332;DHT22;4203;48.144;14.118;2024-03-07T12:11:23;6.20;99.90
8332;DHT22;4203;48.144;14.118;2024-03-07T12:17:56;6.20;99.90
8332;DHT22;4203;48.144;14.118;2024-03-07T12:21:01;6.10;99.90
8332;DHT22;4203;48.144;14.118;2024-03-07T12:27:26;5.90;99.90
8332;DHT22;4203;48.144;14.118;2024-03-07T19:34:49;1.20;99.90
8332;DHT22;4203;48.144;14.118;2024-03-07T19:37:16;0.30;99.90
8332;DHT22;4203;48.144;14.118;2024-03-07T19:39:45;1.10;99.90
8332;DHT22;4203;48.144;14.118;2024-03-07T19:42:13;1.00;99.90
8332;DHT22;4203;48.144;14.118;2024-03-07T19:44:40;1.00;99.90
8332;DHT22;4203;48.144;14.118;2024-03-07T19:47:10;0.90;99.90
8332;DHT22;4203;48.144;14.118;2024-03-07T19:49:39;0.90;99.90
8332;DHT22;4203;48.144;14.118;2024-03-07T19:52:08;0.90;99.90
8332;DHT22;4203;48.144;14.118;2024-03-07T19:54:37;0.90;99.90
8332;DHT22;4203;48.144;14.118;2024-03-07T19:57:05;0.90;99.90
8332;DHT22;4203;48.144;14.118;2024-03-07T19:59:32;0.80;99.90
8332;DHT22;4203;48.144;14.118;2024-03-07T20:01:59;0.90;99.90
8332;DHT22;4203;48.144;14.118;2024-03-07T20:04:29;0.90;99.90
8332;DHT22;4203;48.144;14.118;2024-03-07T20:06:57;0.90;99.90
8332;DHT22;4203;48.144;14.118;2024-03-07T20:09:26;0.80;99.90
8332;DHT22;4203;48.144;14.118;2024-03-07T20:11:53;0.80;99.90
8332;DHT22;4203;48.144;14.118;2024-03-07T20:14:21;0.80;99.90
8332;DHT22;4203;48.144;14.118;2024-03-07T20:16:49;0.90;99.90
8332;DHT22;4203;48.144;14.118;2024-03-07T20:19:16;0.90;99.90
8332;DHT22;4203;48.144;14.118;2024-03-07T20:21:43;0.90;99.90
8332;DHT22;4203;48.144;14.118;2024-03-07T20:24:11;0.90;99.90
8332;DHT22;4203;48.144;14.118;2024-03-07T20:26:39;1.00;99.90
8332;DHT22;4203;48.144;14.118;2024-03-07T20:29:06;1.00;99.90
8332;DHT22;4203;48.144;14.118;2024-03-07T20:31:35;1.10;99.90
8332;DHT22;4203;48.144;14.118;2024-03-07T20:34:03;1.10;99.90
8332;DHT22;4203;48.144;14.118;2024-03-07T20:36:30;1.20;99.90
8332;DHT22;4203;48.144;14.118;2024-03-07T20:39:00;1.20;99.90
8332;DHT22;4203;48.144;14.118;2024-03-07T20:41:28;1.20;99.90
8332;DHT22;4203;48.144;14.118;2024-03-07T20:43:58;1.20;99.90
8332;DHT22;4203;48.144;14.118;2024-03-07T20:46:29;1.20;99.90
8332;DHT22;4203;48.144;14.118;2024-03-07T20:48:56;1.20;99.90
8332;DHT22;4203;48.144;14.118;2024-03-07T20:51:23;1.20;99.90
8332;DHT22;4203;48.144;14.118;2024-03-07T20:53:50;1.20;99.90
8332;DHT22;4203;48.144;14.118;2024-03-07T20:56:18;1.20;99.90
8332;DHT22;4203;48.144;14.118;2024-03-07T20:58:45;1.20;99.90
8332;DHT22;4203;48.144;14.118;2024-03-07T21:01:15;1.20;99.90
8332;DHT22;4203;48.144;14.118;2024-03-07T21:03:43;1.10;99.90
8332;DHT22;4203;48.144;14.118;2024-03-07T21:06:10;1.20;99.90
8332;DHT22;4203;48.144;14.118;2024-03-07T21:08:37;1.10;99.90
8332;DHT22;4203;48.144;14.118;2024-03-07T21:11:06;1.10;99.90
8332;DHT22;4203;48.144;14.118;2024-03-07T21:13:34;1.00;99.90
8332;DHT22;4203;48.144;14.118;2024-03-07T21:16:05;1.00;99.90
8332;DHT22;4203;48.144;14.118;2024-03-07T21:18:34;0.90;99.90
8332;DHT22;4203;48.144;14.118;2024-03-07T21:21:03;1.00;99.90
8332;DHT22;4203;48.144;14.118;2024-03-07T21:23:30;1.00;99.90
8332;DHT22;4203;48.144;14.118;2024-03-07T21:25:58;1.00;99.90
8332;DHT22;4203;48.144;14.118;2024-03-07T21:28:25;1.00;99.90
8332;DHT22;4203;48.144;14.118;2024-03-07T21:30:52;1.00;99.90
8332;DHT22;4203;48.144;14.118;2024-03-07T21:33:20;1.00;99.90
8332;DHT22;4203;48.144;14.118;2024-03-07T21:35:49;1.00;99.90
8332;DHT22;4203;48.144;14.118;2024-03-07T21:38:19;1.00;99.90
8332;DHT22;4203;48.144;14.118;2024-03-07T21:40:47;1.00;99.90
8332;DHT22;4203;48.144;14.118;2024-03-07T21:43:14;1.00;99.90
8332;DHT22;4203;48.144;14.118;2024-03-07T21:45:41;1.00;99.90
8332;DHT22;4203;48.144;14.118;2024-03-07T21:48:09;1.00;99.90
8332;DHT22;4203;48.144;14.118;2024-03-07T21:50:36;1.00;99.90
8332;DHT22;4203;48.144;14.118;2024-03-07T21:53:05;1.00;99.90
8332;DHT22;4203;48.144;14.118;2024-03-07T21:55:32;1.00;99.90
8332;DHT22;4203;48.144;14.118;2024-03-07T21:58:00;1.10;99.90
8332;DHT22;4203;48.144;14.118;2024-03-07T22:00:27;1.10;99.90
8332;DHT22;4203;48.144;14.118;2024-03-07T22:02:55;1.10;99.90
8332;DHT22;4203;48.144;14.118;2024-03-07T22:05:22;1.20;99.90
8332;DHT22;4203;48.144;14.118;2024-03-07T22:07:50;1.20;99.90
8332;DHT22;4203;48.144;14.118;2024-03-07T22:10:19;1.30;99.90
8332;DHT22;4203;48.144;14.118;2024-03-07T22:12:46;1.30;99.90
8332;DHT22;4203;48.144;14.118;2024-03-07T22:15:13;1.40;99.90
8332;DHT22;4203;48.144;14.118;2024-03-07T22:17:42;1.40;99.90
8332;DHT22;4203;48.144;14.118;2024-03-07T22:20:11;1.50;99.90
8332;DHT22;4203;48.144;14.118;2024-03-07T22:22:40;1.50;99.90
8332;DHT22;4203;48.144;14.118;2024-03-07T22:25:07;1.50;99.90
8332;DHT22;4203;48.144;14.118;2024-03-07T22:27:38;1.50;99.90
8332;DHT22;4203;48.144;14.118;2024-03-07T22:30:06;1.50;99.90
8332;DHT22;4203;48.144;14.118;2024-03-07T22:32:37;1.50;99.90
8332;DHT22;4203;48.144;14.118;2024-03-07T22:35:06;1.50;99.90
8332;DHT22;4203;48.144;14.118;2024-03-07T22:37:36;1.50;99.90
8332;DHT22;4203;48.144;14.118;2024-03-07T22:40:04;1.60;99.90
8332;DHT22;4203;48.144;14.118;2024-03-07T22:42:32;1.60;99.90
8332;DHT22;4203;48.144;14.118;2024-03-07T22:45:03;1.60;99.90
8332;DHT22;4203;48.144;14.118;2024-03-07T22:47:31;1.60;99.90
8332;DHT22;4203;48.144;14.118;2024-03-07T22:49:58;1.60;99.90
8332;DHT22;4203;48.144;14.118;2024-03-07T22:52:25;1.70;99.90
8332;DHT22;4203;48.144;14.118;2024-03-07T22:54:52;1.70;99.90
8332;DHT22;4203;48.144;14.118;2024-03-07T22:57:19;1.70;99.90
8332;DHT22;4203;48.144;14.118;2024-03-07T22:59:47;1.80;99.90
8332;DHT22;4203;48.144;14.118;2024-03-07T23:02:16;1.80;99.90
8332;DHT22;4203;48.144;14.118;2024-03-07T23:04:43;1.80;99.90
8332;DHT22;4203;48.144;14.118;2024-03-07T23:07:11;1.80;99.90
8332;DHT22;4203;48.144;14.118;2024-03-07T23:09:38;1.90;99.90
8332;DHT22;4203;48.144;14.118;2024-03-07T23:12:06;1.90;99.90
8332;DHT22;4203;48.144;14.118;2024-03-07T23:14:35;2.00;99.90
8332;DHT22;4203;48.144;14.118;2024-03-07T23:17:03;1.90;99.90
8332;DHT22;4203;48.144;14.118;2024-03-07T23:19:31;1.90;99.90
8332;DHT22;4203;48.144;14.118;2024-03-07T23:21:59;1.90;99.90
8332;DHT22;4203;48.144;14.118;2024-03-07T23:24:26;1.90;99.90
8332;DHT22;4203;48.144;14.118;2024-03-07T23:26:53;1.90;99.90
8332;DHT22;4203;48.144;14.118;2024-03-07T23:29:21;1.90;99.90
8332;DHT22;4203;48.144;14.118;2024-03-07T23:31:48;1.80;99.90
8332;DHT22;4203;48.144;14.118;2024-03-07T23:34:17;1.80;99.90
8332;DHT22;4203;48.144;14.118;2024-03-07T23:36:48;1.70;99.90
8332;DHT22;4203;48.144;14.118;2024-03-07T23:39:15;1.70;99.90
8332;DHT22;4203;48.144;14.118;2024-03-07T23:41:43;1.70;99.90
8332;DHT22;4203;48.144;14.118;2024-03-07T23:44:10;1.60;99.90
8332;DHT22;4203;48.144;14.118;2024-03-07T23:46:37;1.60;99.90
8332;DHT22;4203;48.144;14.118;2024-03-07T23:49:04;1.60;99.90
8332;DHT22;4203;48.144;14.118;2024-03-07T23:51:32;1.60;99.90
8332;DHT22;4203;48.144;14.118;2024-03-07T23:54:00;1.60;99.90
8332;DHT22;4203;48.144;14.118;2024-03-07T23:56:27;1.60;99.90
8332;DHT22;4203;48.144;14.118;2024-03-07T23:58:55;1.50;99.90
